Terminal Aerodrome Forecast
Issued by NWS

Home | Current Version | Previous Version | Text Only | Print | Product List | Glossary On
Versions: 1 2 3 4 5 6 7 8 9 10 11 12 13 14 15 16 17
000
FTUS43 KDVN 272323
TAFBRL
TAF
KBRL 272323Z 2800/2824 16005KT P6SM SCT040 SCT120
     FM280300 VRB03KT P6SM SCT120
      TEMPO 2810/2813 4SM BR
     FM281400 31007KT P6SM BKN035=

USA.gov is the U.S. government's official web portal to all federal, state and local government web resources and services.